sensor_id;sensor_type;location;lat;lon;timestamp;P1;durP1;ratioP1;P2;durP2;ratioP2
27670;SDS011;15077;49.704;9.908;2023-09-19T00:00:55;0.82;;;0.45;;
27670;SDS011;15077;49.704;9.908;2023-09-19T00:03:22;1.67;;;0.50;;
27670;SDS011;15077;49.704;9.908;2023-09-19T00:05:51;1.95;;;0.50;;
27670;SDS011;15077;49.704;9.908;2023-09-19T00:08:19;1.63;;;0.40;;
27670;SDS011;15077;49.704;9.908;2023-09-19T00:10:50;1.35;;;0.40;;
27670;SDS011;15077;49.704;9.908;2023-09-19T00:13:18;0.65;;;0.40;;
27670;SDS011;15077;49.704;9.908;2023-09-19T00:15:45;1.70;;;0.50;;
27670;SDS011;15077;49.704;9.908;2023-09-19T00:18:17;1.50;;;0.40;;
27670;SDS011;15077;49.704;9.908;2023-09-19T00:20:53;1.48;;;0.60;;
27670;SDS011;15077;49.704;9.908;2023-09-19T00:23:23;1.20;;;0.68;;
27670;SDS011;15077;49.704;9.908;2023-09-19T00:25:51;2.10;;;0.70;;
27670;SDS011;15077;49.704;9.908;2023-09-19T00:28:26;3.10;;;0.70;;
27670;SDS011;15077;49.704;9.908;2023-09-19T00:30:57;1.88;;;0.52;;
27670;SDS011;15077;49.704;9.908;2023-09-19T00:33:27;1.17;;;0.40;;
27670;SDS011;15077;49.704;9.908;2023-09-19T00:35:55;2.55;;;0.60;;
27670;SDS011;15077;49.704;9.908;2023-09-19T00:38:22;1.95;;;0.57;;
27670;SDS011;15077;49.704;9.908;2023-09-19T00:40:51;1.35;;;0.63;;
27670;SDS011;15077;49.704;9.908;2023-09-19T00:43:19;1.70;;;0.68;;
27670;SDS011;15077;49.704;9.908;2023-09-19T00:45:48;1.85;;;0.63;;
27670;SDS011;15077;49.704;9.908;2023-09-19T00:48:16;1.73;;;0.60;;
27670;SDS011;15077;49.704;9.908;2023-09-19T00:50:44;1.08;;;0.60;;
27670;SDS011;15077;49.704;9.908;2023-09-19T00:53:15;3.20;;;0.77;;
27670;SDS011;15077;49.704;9.908;2023-09-19T00:55:51;1.95;;;0.50;;
27670;SDS011;15077;49.704;9.908;2023-09-19T00:58:21;2.53;;;0.50;;
27670;SDS011;15077;49.704;9.908;2023-09-19T01:00:50;1.65;;;0.80;;
27670;SDS011;15077;49.704;9.908;2023-09-19T01:03:17;1.20;;;0.57;;
27670;SDS011;15077;49.704;9.908;2023-09-19T01:05:43;1.55;;;0.70;;
27670;SDS011;15077;49.704;9.908;2023-09-19T01:08:10;3.00;;;0.68;;
27670;SDS011;15077;49.704;9.908;2023-09-19T01:10:37;1.15;;;0.63;;
27670;SDS011;15077;49.704;9.908;2023-09-19T01:22:21;1.95;;;0.50;;
27670;SDS011;15077;49.704;9.908;2023-09-19T01:25:40;1.40;;;0.85;;
27670;SDS011;15077;49.704;9.908;2023-09-19T01:28:52;2.15;;;0.90;;
27670;SDS011;15077;49.704;9.908;2023-09-19T01:31:57;2.45;;;1.00;;
27670;SDS011;15077;49.704;9.908;2023-09-19T01:34:43;4.10;;;1.05;;
27670;SDS011;15077;49.704;9.908;2023-09-19T01:37:29;8.00;;;1.20;;
27670;SDS011;15077;49.704;9.908;2023-09-19T01:40:03;1.05;;;0.70;;
27670;SDS011;15077;49.704;9.908;2023-09-19T01:54:33;1.80;;;0.90;;
27670;SDS011;15077;49.704;9.908;2023-09-19T01:57:17;1.80;;;1.00;;
27670;SDS011;15077;49.704;9.908;2023-09-19T02:00:00;1.50;;;1.05;;
27670;SDS011;15077;49.704;9.908;2023-09-19T02:02:34;2.28;;;1.05;;
27670;SDS011;15077;49.704;9.908;2023-09-19T02:05:08;3.22;;;1.20;;
27670;SDS011;15077;49.704;9.908;2023-09-19T02:07:38;2.05;;;1.20;;
27670;SDS011;15077;49.704;9.908;2023-09-19T02:10:06;1.55;;;1.30;;
27670;SDS011;15077;49.704;9.908;2023-09-19T02:12:35;2.05;;;0.88;;
27670;SDS011;15077;49.704;9.908;2023-09-19T02:15:03;2.33;;;1.17;;
27670;SDS011;15077;49.704;9.908;2023-09-19T02:17:32;2.90;;;2.03;;
27670;SDS011;15077;49.704;9.908;2023-09-19T02:19:57;2.95;;;1.40;;
27670;SDS011;15077;49.704;9.908;2023-09-19T02:22:32;3.03;;;1.23;;
27670;SDS011;15077;49.704;9.908;2023-09-19T02:25:00;2.30;;;1.60;;
27670;SDS011;15077;49.704;9.908;2023-09-19T02:27:26;3.22;;;1.48;;
27670;SDS011;15077;49.704;9.908;2023-09-19T02:29:53;2.88;;;1.65;;
27670;SDS011;15077;49.704;9.908;2023-09-19T02:32:21;2.40;;;1.25;;
27670;SDS011;15077;49.704;9.908;2023-09-19T02:34:49;3.03;;;1.20;;
27670;SDS011;15077;49.704;9.908;2023-09-19T02:37:17;2.70;;;1.65;;
27670;SDS011;15077;49.704;9.908;2023-09-19T02:39:45;2.00;;;1.30;;
27670;SDS011;15077;49.704;9.908;2023-09-19T02:42:12;3.38;;;1.80;;
27670;SDS011;15077;49.704;9.908;2023-09-19T02:44:40;2.53;;;2.00;;
27670;SDS011;15077;49.704;9.908;2023-09-19T02:47:06;2.65;;;1.80;;
27670;SDS011;15077;49.704;9.908;2023-09-19T02:49:32;2.78;;;2.00;;
27670;SDS011;15077;49.704;9.908;2023-09-19T02:52:00;3.10;;;1.73;;
27670;SDS011;15077;49.704;9.908;2023-09-19T02:54:29;2.50;;;2.03;;
27670;SDS011;15077;49.704;9.908;2023-09-19T02:56:58;3.65;;;1.88;;
27670;SDS011;15077;49.704;9.908;2023-09-19T02:59:24;2.58;;;2.08;;
27670;SDS011;15077;49.704;9.908;2023-09-19T03:01:50;3.13;;;2.00;;
27670;SDS011;15077;49.704;9.908;2023-09-19T03:04:20;2.47;;;2.10;;
27670;SDS011;15077;49.704;9.908;2023-09-19T03:06:47;3.20;;;2.20;;
27670;SDS011;15077;49.704;9.908;2023-09-19T03:09:14;2.78;;;2.30;;
27670;SDS011;15077;49.704;9.908;2023-09-19T03:11:41;2.78;;;2.20;;
27670;SDS011;15077;49.704;9.908;2023-09-19T03:14:09;2.55;;;2.00;;
27670;SDS011;15077;49.704;9.908;2023-09-19T03:16:35;4.93;;;2.25;;
27670;SDS011;15077;49.704;9.908;2023-09-19T03:19:03;3.22;;;2.70;;
27670;SDS011;15077;49.704;9.908;2023-09-19T03:21:29;2.78;;;2.50;;
27670;SDS011;15077;49.704;9.908;2023-09-19T03:23:55;2.88;;;2.45;;
27670;SDS011;15077;49.704;9.908;2023-09-19T03:26:21;3.65;;;3.05;;
27670;SDS011;15077;49.704;9.908;2023-09-19T03:28:47;3.33;;;3.00;;
27670;SDS011;15077;49.704;9.908;2023-09-19T03:31:15;3.33;;;2.92;;
27670;SDS011;15077;49.704;9.908;2023-09-19T03:33:46;4.10;;;2.75;;
27670;SDS011;15077;49.704;9.908;2023-09-19T03:36:12;4.25;;;3.60;;
27670;SDS011;15077;49.704;9.908;2023-09-19T03:38:39;3.47;;;2.40;;
27670;SDS011;15077;49.704;9.908;2023-09-19T03:41:05;6.15;;;2.67;;
27670;SDS011;15077;49.704;9.908;2023-09-19T03:43:32;2.85;;;2.00;;
27670;SDS011;15077;49.704;9.908;2023-09-19T03:46:00;2.38;;;1.42;;
27670;SDS011;15077;49.704;9.908;2023-09-19T03:48:30;2.85;;;1.70;;
27670;SDS011;15077;49.704;9.908;2023-09-19T03:50:58;1.83;;;1.63;;
27670;SDS011;15077;49.704;9.908;2023-09-19T03:53:24;1.70;;;1.40;;
27670;SDS011;15077;49.704;9.908;2023-09-19T03:55:51;2.13;;;1.70;;
27670;SDS011;15077;49.704;9.908;2023-09-19T03:58:17;3.38;;;2.28;;
27670;SDS011;15077;49.704;9.908;2023-09-19T04:00:44;3.60;;;2.22;;
27670;SDS011;15077;49.704;9.908;2023-09-19T04:03:10;2.55;;;1.65;;
27670;SDS011;15077;49.704;9.908;2023-09-19T04:05:44;2.33;;;1.50;;
27670;SDS011;15077;49.704;9.908;2023-09-19T04:08:12;2.65;;;1.60;;
27670;SDS011;15077;49.704;9.908;2023-09-19T04:10:43;1.85;;;1.17;;
27670;SDS011;15077;49.704;9.908;2023-09-19T04:13:10;2.22;;;0.95;;
27670;SDS011;15077;49.704;9.908;2023-09-19T04:15:36;1.75;;;1.15;;
27670;SDS011;15077;49.704;9.908;2023-09-19T04:18:02;2.75;;;0.98;;
27670;SDS011;15077;49.704;9.908;2023-09-19T04:20:29;2.63;;;1.05;;
27670;SDS011;15077;49.704;9.908;2023-09-19T04:22:54;1.50;;;0.70;;
27670;SDS011;15077;49.704;9.908;2023-09-19T04:25:20;2.15;;;1.00;;
27670;SDS011;15077;49.704;9.908;2023-09-19T04:27:46;1.58;;;0.82;;
27670;SDS011;15077;49.704;9.908;2023-09-19T04:30:12;1.63;;;0.82;;
27670;SDS011;15077;49.704;9.908;2023-09-19T04:32:39;1.10;;;0.60;;
27670;SDS011;15077;49.704;9.908;2023-09-19T04:35:06;1.42;;;0.70;;
27670;SDS011;15077;49.704;9.908;2023-09-19T04:37:40;1.67;;;0.60;;
27670;SDS011;15077;49.704;9.908;2023-09-19T04:40:09;2.38;;;0.60;;
27670;SDS011;15077;49.704;9.908;2023-09-19T04:42:43;1.45;;;0.73;;
27670;SDS011;15077;49.704;9.908;2023-09-19T04:45:09;1.88;;;1.00;;
27670;SDS011;15077;49.704;9.908;2023-09-19T04:47:36;1.35;;;0.80;;
27670;SDS011;15077;49.704;9.908;2023-09-19T04:50:05;2.10;;;0.80;;
27670;SDS011;15077;49.704;9.908;2023-09-19T04:52:39;1.27;;;0.80;;
27670;SDS011;15077;49.704;9.908;2023-09-19T04:55:07;1.48;;;0.93;;
27670;SDS011;15077;49.704;9.908;2023-09-19T04:57:42;0.90;;;0.60;;
27670;SDS011;15077;49.704;9.908;2023-09-19T05:00:16;2.20;;;0.70;;
27670;SDS011;15077;49.704;9.908;2023-09-19T05:02:44;1.33;;;0.73;;
27670;SDS011;15077;49.704;9.908;2023-09-19T05:05:17;3.88;;;0.93;;
27670;SDS011;15077;49.704;9.908;2023-09-19T05:07:44;2.50;;;1.02;;
27670;SDS011;15077;49.704;9.908;2023-09-19T05:10:11;1.55;;;0.73;;
27670;SDS011;15077;49.704;9.908;2023-09-19T05:12:37;1.88;;;1.13;;
27670;SDS011;15077;49.704;9.908;2023-09-19T05:15:04;2.92;;;0.57;;
27670;SDS011;15077;49.704;9.908;2023-09-19T05:17:34;1.30;;;0.80;;
27670;SDS011;15077;49.704;9.908;2023-09-19T05:20:02;1.75;;;1.00;;
27670;SDS011;15077;49.704;9.908;2023-09-19T05:22:31;1.58;;;0.85;;
27670;SDS011;15077;49.704;9.908;2023-09-19T05:24:57;2.10;;;1.02;;
27670;SDS011;15077;49.704;9.908;2023-09-19T05:27:23;1.48;;;0.77;;
27670;SDS011;15077;49.704;9.908;2023-09-19T05:29:49;0.98;;;0.60;;
27670;SDS011;15077;49.704;9.908;2023-09-19T05:32:18;1.85;;;0.90;;
27670;SDS011;15077;49.704;9.908;2023-09-19T05:34:44;1.15;;;0.70;;
27670;SDS011;15077;49.704;9.908;2023-09-19T05:37:12;2.33;;;1.20;;
27670;SDS011;15077;49.704;9.908;2023-09-19T05:39:41;1.75;;;0.80;;
27670;SDS011;15077;49.704;9.908;2023-09-19T05:42:07;1.50;;;1.00;;
27670;SDS011;15077;49.704;9.908;2023-09-19T05:44:33;3.40;;;1.05;;
27670;SDS011;15077;49.704;9.908;2023-09-19T05:46:59;3.08;;;0.88;;
27670;SDS011;15077;49.704;9.908;2023-09-19T05:49:25;1.60;;;1.00;;
27670;SDS011;15077;49.704;9.908;2023-09-19T05:51:50;3.63;;;1.10;;
27670;SDS011;15077;49.704;9.908;2023-09-19T05:54:19;1.80;;;1.15;;
27670;SDS011;15077;49.704;9.908;2023-09-19T05:56:45;1.73;;;0.90;;
27670;SDS011;15077;49.704;9.908;2023-09-19T05:59:12;4.40;;;1.08;;
27670;SDS011;15077;49.704;9.908;2023-09-19T06:01:41;2.08;;;1.73;;
27670;SDS011;15077;49.704;9.908;2023-09-19T06:04:07;4.20;;;1.20;;
27670;SDS011;15077;49.704;9.908;2023-09-19T06:06:33;2.47;;;1.40;;
27670;SDS011;15077;49.704;9.908;2023-09-19T06:09:05;3.07;;;1.30;;
27670;SDS011;15077;49.704;9.908;2023-09-19T06:11:33;1.50;;;1.23;;
27670;SDS011;15077;49.704;9.908;2023-09-19T06:14:03;4.10;;;1.25;;
27670;SDS011;15077;49.704;9.908;2023-09-19T06:16:29;1.83;;;1.42;;
27670;SDS011;15077;49.704;9.908;2023-09-19T06:18:59;1.92;;;1.50;;
27670;SDS011;15077;49.704;9.908;2023-09-19T06:21:26;3.30;;;1.98;;
27670;SDS011;15077;49.704;9.908;2023-09-19T06:23:55;2.47;;;1.77;;
27670;SDS011;15077;49.704;9.908;2023-09-19T06:26:23;3.08;;;1.83;;
27670;SDS011;15077;49.704;9.908;2023-09-19T06:28:51;2.00;;;1.63;;
27670;SDS011;15077;49.704;9.908;2023-09-19T06:31:17;3.58;;;1.60;;
27670;SDS011;15077;49.704;9.908;2023-09-19T06:33:43;2.50;;;1.50;;
27670;SDS011;15077;49.704;9.908;2023-09-19T06:36:09;2.15;;;1.52;;
27670;SDS011;15077;49.704;9.908;2023-09-19T06:38:36;2.30;;;1.40;;
27670;SDS011;15077;49.704;9.908;2023-09-19T06:41:04;3.95;;;1.90;;
27670;SDS011;15077;49.704;9.908;2023-09-19T06:43:30;4.10;;;1.90;;
27670;SDS011;15077;49.704;9.908;2023-09-19T06:45:58;2.55;;;2.03;;
27670;SDS011;15077;49.704;9.908;2023-09-19T06:48:25;3.30;;;2.28;;
27670;SDS011;15077;49.704;9.908;2023-09-19T06:50:55;3.65;;;2.35;;
27670;SDS011;15077;49.704;9.908;2023-09-19T06:53:23;3.17;;;1.70;;
27670;SDS011;15077;49.704;9.908;2023-09-19T06:55:50;3.13;;;1.80;;
27670;SDS011;15077;49.704;9.908;2023-09-19T06:58:16;5.00;;;1.65;;
27670;SDS011;15077;49.704;9.908;2023-09-19T07:00:42;1.90;;;1.20;;
27670;SDS011;15077;49.704;9.908;2023-09-19T07:03:09;3.78;;;1.63;;
27670;SDS011;15077;49.704;9.908;2023-09-19T07:05:37;2.53;;;1.40;;
27670;SDS011;15077;49.704;9.908;2023-09-19T07:08:05;2.25;;;1.30;;
27670;SDS011;15077;49.704;9.908;2023-09-19T07:10:33;3.47;;;1.45;;
27670;SDS011;15077;49.704;9.908;2023-09-19T07:13:03;3.15;;;1.63;;
27670;SDS011;15077;49.704;9.908;2023-09-19T07:15:32;2.47;;;1.40;;
27670;SDS011;15077;49.704;9.908;2023-09-19T07:18:00;3.80;;;1.75;;
27670;SDS011;15077;49.704;9.908;2023-09-19T07:20:26;4.28;;;1.98;;
27670;SDS011;15077;49.704;9.908;2023-09-19T07:22:54;3.05;;;1.58;;
27670;SDS011;15077;49.704;9.908;2023-09-19T07:25:20;4.18;;;1.30;;
27670;SDS011;15077;49.704;9.908;2023-09-19T07:27:46;2.90;;;1.42;;
27670;SDS011;15077;49.704;9.908;2023-09-19T07:30:12;2.40;;;1.30;;
27670;SDS011;15077;49.704;9.908;2023-09-19T07:32:38;2.83;;;1.83;;
27670;SDS011;15077;49.704;9.908;2023-09-19T07:35:05;4.43;;;1.70;;
27670;SDS011;15077;49.704;9.908;2023-09-19T07:37:32;2.65;;;1.25;;
27670;SDS011;15077;49.704;9.908;2023-09-19T07:40:02;2.30;;;1.35;;
27670;SDS011;15077;49.704;9.908;2023-09-19T07:42:33;2.25;;;1.40;;
27670;SDS011;15077;49.704;9.908;2023-09-19T07:45:00;4.25;;;1.48;;
27670;SDS011;15077;49.704;9.908;2023-09-19T07:47:26;1.95;;;1.27;;
27670;SDS011;15077;49.704;9.908;2023-09-19T07:49:55;2.40;;;1.40;;
27670;SDS011;15077;49.704;9.908;2023-09-19T07:52:21;2.80;;;1.45;;
27670;SDS011;15077;49.704;9.908;2023-09-19T07:54:47;3.67;;;1.60;;
27670;SDS011;15077;49.704;9.908;2023-09-19T07:57:14;2.08;;;1.30;;
27670;SDS011;15077;49.704;9.908;2023-09-19T07:59:41;2.70;;;1.10;;
27670;SDS011;15077;49.704;9.908;2023-09-19T08:02:08;4.30;;;1.65;;
27670;SDS011;15077;49.704;9.908;2023-09-19T08:04:43;2.60;;;1.25;;
27670;SDS011;15077;49.704;9.908;2023-09-19T08:07:14;3.17;;;1.40;;
27670;SDS011;15077;49.704;9.908;2023-09-19T08:09:40;4.18;;;1.58;;
27670;SDS011;15077;49.704;9.908;2023-09-19T08:12:06;4.70;;;1.00;;
27670;SDS011;15077;49.704;9.908;2023-09-19T08:14:36;2.72;;;1.33;;
27670;SDS011;15077;49.704;9.908;2023-09-19T08:17:03;3.08;;;1.67;;
27670;SDS011;15077;49.704;9.908;2023-09-19T08:19:33;2.05;;;1.17;;
27670;SDS011;15077;49.704;9.908;2023-09-19T08:21:59;4.40;;;1.60;;
27670;SDS011;15077;49.704;9.908;2023-09-19T08:24:26;2.78;;;1.45;;
27670;SDS011;15077;49.704;9.908;2023-09-19T08:26:56;3.65;;;1.13;;
27670;SDS011;15077;49.704;9.908;2023-09-19T08:29:25;2.30;;;1.27;;
27670;SDS011;15077;49.704;9.908;2023-09-19T08:34:22;2.33;;;1.23;;
27670;SDS011;15077;49.704;9.908;2023-09-19T08:36:54;5.60;;;1.52;;
27670;SDS011;15077;49.704;9.908;2023-09-19T08:41:59;3.97;;;1.33;;
27670;SDS011;15077;49.704;9.908;2023-09-19T08:44:29;2.53;;;1.00;;
27670;SDS011;15077;49.704;9.908;2023-09-19T08:46:58;2.90;;;1.15;;
27670;SDS011;15077;49.704;9.908;2023-09-19T08:52:25;2.40;;;1.00;;
27670;SDS011;15077;49.704;9.908;2023-09-19T08:55:02;1.77;;;1.10;;
27670;SDS011;15077;49.704;9.908;2023-09-19T08:57:33;4.28;;;1.52;;
27670;SDS011;15077;49.704;9.908;2023-09-19T09:00:02;2.28;;;1.10;;
27670;SDS011;15077;49.704;9.908;2023-09-19T09:02:35;2.72;;;1.55;;
27670;SDS011;15077;49.704;9.908;2023-09-19T09:05:09;3.88;;;1.10;;
27670;SDS011;15077;49.704;9.908;2023-09-19T09:07:40;2.28;;;0.80;;
27670;SDS011;15077;49.704;9.908;2023-09-19T09:10:06;2.42;;;1.15;;
27670;SDS011;15077;49.704;9.908;2023-09-19T09:12:33;1.48;;;1.00;;
27670;SDS011;15077;49.704;9.908;2023-09-19T09:15:06;2.33;;;1.13;;
27670;SDS011;15077;49.704;9.908;2023-09-19T09:17:33;2.47;;;1.20;;
27670;SDS011;15077;49.704;9.908;2023-09-19T09:19:59;2.17;;;1.10;;
27670;SDS011;15077;49.704;9.908;2023-09-19T09:22:25;2.58;;;1.10;;
27670;SDS011;15077;49.704;9.908;2023-09-19T09:24:54;3.10;;;1.20;;
27670;SDS011;15077;49.704;9.908;2023-09-19T09:27:30;2.55;;;1.25;;
27670;SDS011;15077;49.704;9.908;2023-09-19T09:29:57;2.85;;;1.13;;
27670;SDS011;15077;49.704;9.908;2023-09-19T09:32:27;2.47;;;1.00;;
27670;SDS011;15077;49.704;9.908;2023-09-19T09:34:59;5.28;;;1.42;;
27670;SDS011;15077;49.704;9.908;2023-09-19T09:37:27;2.15;;;1.33;;
27670;SDS011;15077;49.704;9.908;2023-09-19T09:39:59;3.40;;;1.10;;
27670;SDS011;15077;49.704;9.908;2023-09-19T09:42:44;3.40;;;1.25;;
27670;SDS011;15077;49.704;9.908;2023-09-19T09:45:21;3.08;;;1.30;;
27670;SDS011;15077;49.704;9.908;2023-09-19T09:47:57;3.03;;;1.38;;
27670;SDS011;15077;49.704;9.908;2023-09-19T09:53:23;2.40;;;1.25;;
27670;SDS011;15077;49.704;9.908;2023-09-19T09:58:37;2.45;;;1.30;;
27670;SDS011;15077;49.704;9.908;2023-09-19T10:01:19;2.00;;;1.20;;
27670;SDS011;15077;49.704;9.908;2023-09-19T10:03:46;3.25;;;1.70;;
27670;SDS011;15077;49.704;9.908;2023-09-19T10:06:16;2.22;;;1.38;;
27670;SDS011;15077;49.704;9.908;2023-09-19T10:11:43;2.22;;;1.20;;
27670;SDS011;15077;49.704;9.908;2023-09-19T10:14:16;3.63;;;1.52;;
27670;SDS011;15077;49.704;9.908;2023-09-19T10:16:48;2.05;;;1.25;;
27670;SDS011;15077;49.704;9.908;2023-09-19T10:19:29;1.92;;;1.23;;
27670;SDS011;15077;49.704;9.908;2023-09-19T10:22:02;2.58;;;1.30;;
27670;SDS011;15077;49.704;9.908;2023-09-19T10:24:30;3.17;;;1.40;;
27670;SDS011;15077;49.704;9.908;2023-09-19T10:26:59;3.40;;;0.90;;
27670;SDS011;15077;49.704;9.908;2023-09-19T10:29:26;4.07;;;1.50;;
27670;SDS011;15077;49.704;9.908;2023-09-19T10:31:57;2.00;;;1.15;;
27670;SDS011;15077;49.704;9.908;2023-09-19T10:34:26;2.33;;;1.55;;
27670;SDS011;15077;49.704;9.908;2023-09-19T10:36:55;4.07;;;1.20;;
27670;SDS011;15077;49.704;9.908;2023-09-19T10:39:21;3.40;;;1.58;;
27670;SDS011;15077;49.704;9.908;2023-09-19T10:41:49;3.53;;;1.38;;
27670;SDS011;15077;49.704;9.908;2023-09-19T10:44:20;2.03;;;1.05;;
27670;SDS011;15077;49.704;9.908;2023-09-19T10:46:50;2.67;;;1.75;;
27670;SDS011;15077;49.704;9.908;2023-09-19T10:49:18;1.98;;;1.02;;
27670;SDS011;15077;49.704;9.908;2023-09-19T10:51:46;4.50;;;1.80;;
27670;SDS011;15077;49.704;9.908;2023-09-19T10:54:18;3.58;;;1.48;;
27670;SDS011;15077;49.704;9.908;2023-09-19T10:56:51;2.95;;;1.23;;
27670;SDS011;15077;49.704;9.908;2023-09-19T10:59:19;5.65;;;1.50;;
27670;SDS011;15077;49.704;9.908;2023-09-19T11:01:47;2.95;;;1.40;;
27670;SDS011;15077;49.704;9.908;2023-09-19T11:07:07;2.95;;;1.50;;
27670;SDS011;15077;49.704;9.908;2023-09-19T11:15:06;2.22;;;1.10;;
27670;SDS011;15077;49.704;9.908;2023-09-19T11:17:37;2.90;;;1.33;;
27670;SDS011;15077;49.704;9.908;2023-09-19T11:30:42;2.38;;;1.25;;
27670;SDS011;15077;49.704;9.908;2023-09-19T11:33:29;1.77;;;0.80;;
27670;SDS011;15077;49.704;9.908;2023-09-19T11:36:11;2.90;;;1.50;;
27670;SDS011;15077;49.704;9.908;2023-09-19T11:46:34;3.45;;;0.85;;
27670;SDS011;15077;49.704;9.908;2023-09-19T11:49:28;3.95;;;1.67;;
27670;SDS011;15077;49.704;9.908;2023-09-19T11:52:03;2.25;;;1.05;;
27670;SDS011;15077;49.704;9.908;2023-09-19T11:54:33;1.90;;;0.98;;
27670;SDS011;15077;49.704;9.908;2023-09-19T11:57:05;1.73;;;1.02;;
27670;SDS011;15077;49.704;9.908;2023-09-19T11:59:33;1.75;;;0.70;;
27670;SDS011;15077;49.704;9.908;2023-09-19T12:02:07;2.60;;;1.20;;
27670;SDS011;15077;49.704;9.908;2023-09-19T12:04:44;2.78;;;0.75;;
27670;SDS011;15077;49.704;9.908;2023-09-19T12:07:13;3.03;;;1.20;;
27670;SDS011;15077;49.704;9.908;2023-09-19T12:09:41;5.35;;;1.20;;
27670;SDS011;15077;49.704;9.908;2023-09-19T12:12:10;2.10;;;1.10;;
27670;SDS011;15077;49.704;9.908;2023-09-19T12:14:40;1.83;;;1.00;;
27670;SDS011;15077;49.704;9.908;2023-09-19T12:17:08;6.65;;;0.90;;
27670;SDS011;15077;49.704;9.908;2023-09-19T12:19:34;2.33;;;0.80;;
27670;SDS011;15077;49.704;9.908;2023-09-19T12:22:01;2.15;;;0.82;;
27670;SDS011;15077;49.704;9.908;2023-09-19T12:24:32;1.55;;;0.88;;
27670;SDS011;15077;49.704;9.908;2023-09-19T12:27:03;3.28;;;1.27;;
27670;SDS011;15077;49.704;9.908;2023-09-19T12:29:32;3.70;;;0.95;;
27670;SDS011;15077;49.704;9.908;2023-09-19T12:34:42;2.92;;;1.00;;
27670;SDS011;15077;49.704;9.908;2023-09-19T12:37:17;2.92;;;0.98;;
27670;SDS011;15077;49.704;9.908;2023-09-19T12:39:48;2.38;;;0.80;;
27670;SDS011;15077;49.704;9.908;2023-09-19T12:42:22;2.30;;;0.90;;
27670;SDS011;15077;49.704;9.908;2023-09-19T12:44:54;1.98;;;1.00;;
27670;SDS011;15077;49.704;9.908;2023-09-19T12:47:22;1.77;;;1.00;;
27670;SDS011;15077;49.704;9.908;2023-09-19T12:50:05;2.25;;;1.20;;
27670;SDS011;15077;49.704;9.908;2023-09-19T12:52:38;3.80;;;1.02;;
27670;SDS011;15077;49.704;9.908;2023-09-19T12:55:06;2.78;;;1.23;;
27670;SDS011;15077;49.704;9.908;2023-09-19T12:57:34;3.03;;;1.08;;
27670;SDS011;15077;49.704;9.908;2023-09-19T13:00:03;3.80;;;1.27;;
27670;SDS011;15077;49.704;9.908;2023-09-19T13:02:36;4.95;;;1.05;;
27670;SDS011;15077;49.704;9.908;2023-09-19T13:05:03;1.42;;;1.10;;
27670;SDS011;15077;49.704;9.908;2023-09-19T13:10:14;1.92;;;1.17;;
27670;SDS011;15077;49.704;9.908;2023-09-19T13:12:41;2.78;;;1.27;;
27670;SDS011;15077;49.704;9.908;2023-09-19T13:15:12;2.13;;;1.02;;
27670;SDS011;15077;49.704;9.908;2023-09-19T13:17:45;1.90;;;1.00;;
27670;SDS011;15077;49.704;9.908;2023-09-19T13:20:25;3.30;;;1.23;;
27670;SDS011;15077;49.704;9.908;2023-09-19T13:22:57;2.45;;;1.10;;
27670;SDS011;15077;49.704;9.908;2023-09-19T13:25:34;3.63;;;1.13;;
27670;SDS011;15077;49.704;9.908;2023-09-19T13:28:00;4.30;;;0.90;;
27670;SDS011;15077;49.704;9.908;2023-09-19T13:30:29;3.83;;;1.02;;
27670;SDS011;15077;49.704;9.908;2023-09-19T13:33:09;2.15;;;0.95;;
27670;SDS011;15077;49.704;9.908;2023-09-19T13:35:38;1.38;;;0.77;;
27670;SDS011;15077;49.704;9.908;2023-09-19T13:38:07;1.98;;;1.02;;
27670;SDS011;15077;49.704;9.908;2023-09-19T13:40:36;2.70;;;1.27;;
27670;SDS011;15077;49.704;9.908;2023-09-19T13:43:04;4.05;;;0.80;;
27670;SDS011;15077;49.704;9.908;2023-09-19T13:45:31;2.63;;;1.05;;
27670;SDS011;15077;49.704;9.908;2023-09-19T13:47:57;4.03;;;1.25;;
27670;SDS011;15077;49.704;9.908;2023-09-19T13:50:26;2.75;;;1.02;;
27670;SDS011;15077;49.704;9.908;2023-09-19T13:52:54;3.58;;;1.17;;
27670;SDS011;15077;49.704;9.908;2023-09-19T13:55:20;2.00;;;0.90;;
27670;SDS011;15077;49.704;9.908;2023-09-19T13:57:46;3.78;;;1.58;;
27670;SDS011;15077;49.704;9.908;2023-09-19T14:00:18;2.60;;;1.03;;
27670;SDS011;15077;49.704;9.908;2023-09-19T14:02:44;3.03;;;1.13;;
27670;SDS011;15077;49.704;9.908;2023-09-19T14:05:10;2.05;;;0.75;;
27670;SDS011;15077;49.704;9.908;2023-09-19T14:07:40;4.07;;;1.38;;
27670;SDS011;15077;49.704;9.908;2023-09-19T14:10:06;3.58;;;1.13;;
27670;SDS011;15077;49.704;9.908;2023-09-19T14:12:33;2.35;;;0.73;;
27670;SDS011;15077;49.704;9.908;2023-09-19T14:14:59;3.17;;;1.20;;
27670;SDS011;15077;49.704;9.908;2023-09-19T14:17:26;2.08;;;1.13;;
27670;SDS011;15077;49.704;9.908;2023-09-19T14:19:52;2.40;;;1.10;;
27670;SDS011;15077;49.704;9.908;2023-09-19T14:22:18;2.90;;;1.10;;
27670;SDS011;15077;49.704;9.908;2023-09-19T14:24:43;3.95;;;1.73;;
27670;SDS011;15077;49.704;9.908;2023-09-19T14:27:09;2.45;;;1.38;;
27670;SDS011;15077;49.704;9.908;2023-09-19T14:29:36;1.63;;;0.60;;
27670;SDS011;15077;49.704;9.908;2023-09-19T14:32:02;2.00;;;0.98;;
27670;SDS011;15077;49.704;9.908;2023-09-19T14:34:28;1.45;;;0.85;;
27670;SDS011;15077;49.704;9.908;2023-09-19T14:36:54;2.15;;;1.00;;
27670;SDS011;15077;49.704;9.908;2023-09-19T14:39:20;1.67;;;1.00;;
27670;SDS011;15077;49.704;9.908;2023-09-19T14:41:45;3.53;;;1.45;;
27670;SDS011;15077;49.704;9.908;2023-09-19T14:44:11;2.83;;;1.27;;
27670;SDS011;15077;49.704;9.908;2023-09-19T14:46:38;4.45;;;1.60;;
27670;SDS011;15077;49.704;9.908;2023-09-19T14:49:04;5.15;;;1.17;;
27670;SDS011;15077;49.704;9.908;2023-09-19T14:51:31;2.63;;;0.90;;
27670;SDS011;15077;49.704;9.908;2023-09-19T14:53:56;2.10;;;0.90;;
27670;SDS011;15077;49.704;9.908;2023-09-19T14:56:22;4.10;;;0.90;;
27670;SDS011;15077;49.704;9.908;2023-09-19T14:58:50;1.80;;;0.95;;
27670;SDS011;15077;49.704;9.908;2023-09-19T15:01:16;2.65;;;1.08;;
27670;SDS011;15077;49.704;9.908;2023-09-19T15:03:42;1.58;;;0.70;;
27670;SDS011;15077;49.704;9.908;2023-09-19T15:06:09;2.35;;;0.80;;
27670;SDS011;15077;49.704;9.908;2023-09-19T15:08:39;2.10;;;0.80;;
27670;SDS011;15077;49.704;9.908;2023-09-19T15:11:10;1.83;;;0.95;;
27670;SDS011;15077;49.704;9.908;2023-09-19T15:13:37;2.38;;;0.95;;
27670;SDS011;15077;49.704;9.908;2023-09-19T15:16:04;4.93;;;1.02;;
27670;SDS011;15077;49.704;9.908;2023-09-19T15:18:39;2.33;;;0.75;;
27670;SDS011;15077;49.704;9.908;2023-09-19T15:21:10;3.33;;;1.10;;
27670;SDS011;15077;49.704;9.908;2023-09-19T15:23:37;2.47;;;0.93;;
27670;SDS011;15077;49.704;9.908;2023-09-19T15:26:04;2.33;;;0.85;;
27670;SDS011;15077;49.704;9.908;2023-09-19T15:28:37;2.33;;;0.77;;
27670;SDS011;15077;49.704;9.908;2023-09-19T15:31:04;1.98;;;0.93;;
27670;SDS011;15077;49.704;9.908;2023-09-19T15:33:36;1.83;;;0.82;;
27670;SDS011;15077;49.704;9.908;2023-09-19T15:36:04;3.00;;;1.02;;
27670;SDS011;15077;49.704;9.908;2023-09-19T15:41:34;4.43;;;1.40;;
27670;SDS011;15077;49.704;9.908;2023-09-19T15:44:10;1.58;;;0.70;;
27670;SDS011;15077;49.704;9.908;2023-09-19T15:46:41;4.95;;;0.82;;
27670;SDS011;15077;49.704;9.908;2023-09-19T15:49:07;2.55;;;0.75;;
27670;SDS011;15077;49.704;9.908;2023-09-19T15:51:34;2.83;;;0.77;;
27670;SDS011;15077;49.704;9.908;2023-09-19T15:54:01;3.03;;;1.00;;
27670;SDS011;15077;49.704;9.908;2023-09-19T15:56:33;3.22;;;1.17;;
27670;SDS011;15077;49.704;9.908;2023-09-19T15:59:02;2.67;;;0.82;;
27670;SDS011;15077;49.704;9.908;2023-09-19T16:01:29;2.72;;;0.82;;
27670;SDS011;15077;49.704;9.908;2023-09-19T16:03:54;2.45;;;0.80;;
27670;SDS011;15077;49.704;9.908;2023-09-19T16:06:22;3.95;;;0.90;;
27670;SDS011;15077;49.704;9.908;2023-09-19T16:08:51;1.58;;;0.82;;
27670;SDS011;15077;49.704;9.908;2023-09-19T16:11:23;1.63;;;0.60;;
27670;SDS011;15077;49.704;9.908;2023-09-19T16:13:51;1.08;;;0.57;;